الصفحة الرئيسية
METAR-TAF:

METAR-TAF

مطار :

Eros Airport

ويندهوك, ناميبيا

دائرة عرض: 22-36-44S, خط طول: 017-04-50E, ارتفاع: 1699 متر

مراقبة الطقس الحالي

تاريخ ووقت الإصدار 2ساعات و 54 دقيقة قبل الساعة 18:00UTC
ريح 9 عقدة من الغرب/الجنوب الغربي
درجة الحرارة 30°درجة مئوية
الرطوبة 7%
ضغط 1021 hPa
الرؤية 10 كم أو أكثر
الغيوم لا تقل 1500 م ولا وجود لمزنة ركامية السحاب الأسود

METAR: FYWE 131800Z 24009KT CAVOK 30/M09 Q1021

زمن: 22:54 (20:54 UTC)

توقعات

تاريخ ووقت الإصدار 3ساعات و 54 دقيقة قبل الساعة 17:00UTC
التوقعات صالحة من13 الساعة 18 UTC إلى 14 الساعة 03 UTC
ريح 11 عقدة من الغرب
الرؤية 10 كم أو أكثر
الغيوم لا تقل 1500 م ولا وجود لمزنة ركامية السحاب الأسود
أصبح
من 13 الساعة 19 UTC إلى 13 الساعة 21 UTC
ريح 9 عقدة من الجنوب/الجنوب الغربي

TAF: FYWE 131700Z 1318/1403 27011KT CAVOK BECMG 1319/1321 20009KT

أرصاد الطقس والتوقعات من أكثر من 4000 مطار (تقارير الطقس للمطار METAR والتنبؤ بالطقس بالمطارTAF).

المحطات المتاحة هي النقط الصفراء والحمراء على الخريطة.

حرك المؤشر فوق النقطة لمعرفة اسم المحطة.

ثم انقر لمعرفة أرصاد وتوقعات الطقس.

لتغيير الخارطة: اضغط على الأزرار الخضراء مع رمز الصليب الأسود للتكبير. على الزر الأخضر مع شرطة للتصغير، أو على الأسهم الخضراء للخرائط المجاورة.


METAR-TAF: